createdAt,value
2023-04-01T00:02:00.287Z,5.43
2023-04-01T00:04:26.712Z,5.70
2023-04-01T00:06:53.081Z,5.30
2023-04-01T00:09:19.826Z,6.07
2023-04-01T00:11:46.430Z,5.97
2023-04-01T00:14:12.741Z,5.40
2023-04-01T00:16:39.170Z,5.38
2023-04-01T00:19:05.557Z,6.27
2023-04-01T00:21:31.967Z,6.60
2023-04-01T00:23:58.739Z,6.35
2023-04-01T00:26:26.137Z,7.47
2023-04-01T00:28:52.489Z,7.07
2023-04-01T00:31:18.883Z,6.33
2023-04-01T00:33:45.531Z,6.40
2023-04-01T00:36:15.792Z,6.15
2023-04-01T00:38:43.525Z,6.75
2023-04-01T00:41:15.137Z,7.07
2023-04-01T00:43:43.799Z,6.77
2023-04-01T00:46:10.304Z,6.88
2023-04-01T00:48:40.284Z,7.60
2023-04-01T00:51:21.255Z,8.50
2023-04-01T00:53:51.003Z,7.95
2023-04-01T00:56:41.619Z,7.07
2023-04-01T00:59:14.250Z,6.55
2023-04-01T01:01:41.173Z,7.50
2023-04-01T01:04:07.874Z,6.78
2023-04-01T01:06:40.423Z,7.03
2023-04-01T01:09:31.637Z,6.17
2023-04-01T01:12:06.173Z,6.78
2023-04-01T01:14:41.339Z,7.22
2023-04-01T01:17:20.293Z,7.25
2023-04-01T01:19:59.559Z,7.20
2023-04-01T01:22:47.687Z,7.37
2023-04-01T01:25:41.511Z,8.10
2023-04-01T01:28:32.498Z,7.63
2023-04-01T01:31:21.646Z,8.45
2023-04-01T01:34:22.724Z,7.10
2023-04-01T01:36:56.185Z,6.47
2023-04-01T01:39:28.806Z,5.30
2023-04-01T01:41:58.324Z,4.50
2023-04-01T01:44:27.722Z,4.63
2023-04-01T01:46:54.134Z,3.97
2023-04-01T01:49:21.107Z,3.67
2023-04-01T01:51:48.997Z,2.75
2023-04-01T01:54:20.570Z,3.70
2023-04-01T01:56:50.814Z,3.10
2023-04-01T01:59:21.035Z,3.55
2023-04-01T02:01:51.531Z,3.37
2023-04-01T02:04:20.302Z,3.33
2023-04-01T02:07:07.350Z,2.50
2023-04-01T02:09:35.204Z,2.35
2023-04-01T02:12:06.444Z,2.20
2023-04-01T02:14:46.871Z,1.97
2023-04-01T02:17:17.094Z,1.77
2023-04-01T02:19:51.425Z,2.30
2023-04-01T02:22:22.787Z,1.83
2023-04-01T02:24:51.452Z,2.65
2023-04-01T02:27:18.107Z,2.53
2023-04-01T02:29:44.550Z,2.35
2023-04-01T02:32:11.569Z,2.53
2023-04-01T02:34:38.370Z,2.20
2023-04-01T02:37:05.326Z,2.20
2023-04-01T02:39:31.742Z,2.30
2023-04-01T02:41:58.169Z,2.97
2023-04-01T02:44:24.512Z,2.78
2023-04-01T02:46:50.911Z,2.70
2023-04-01T02:49:17.274Z,2.30
2023-04-01T02:51:43.607Z,1.93
2023-04-01T02:54:10.194Z,2.47
2023-04-01T02:56:36.562Z,2.50
2023-04-01T02:59:02.922Z,2.67
2023-04-01T03:01:29.377Z,2.33
2023-04-01T03:03:55.885Z,2.70
2023-04-01T03:06:22.306Z,2.13
2023-04-01T03:08:48.643Z,2.50
2023-04-01T03:11:15.186Z,1.95
2023-04-01T03:13:41.527Z,1.70
2023-04-01T03:16:08.066Z,1.87
2023-04-01T03:18:34.565Z,1.95
2023-04-01T03:21:15.362Z,2.13
2023-04-01T03:23:41.775Z,1.95
2023-04-01T03:26:08.637Z,2.28
2023-04-01T03:28:35.261Z,1.63
2023-04-01T03:31:01.685Z,2.00
2023-04-01T03:33:28.037Z,1.30
2023-04-01T03:35:54.477Z,1.50
2023-04-01T03:38:21.284Z,1.73
2023-04-01T03:40:47.597Z,1.73
2023-04-01T03:43:14.013Z,1.52
2023-04-01T03:45:48.491Z,2.10
2023-04-01T03:48:16.215Z,1.73
2023-04-01T03:50:42.957Z,2.60
2023-04-01T03:53:09.594Z,2.43
2023-04-01T03:55:39.649Z,2.75
2023-04-01T03:58:07.278Z,2.33
2023-04-01T04:00:33.873Z,3.13
2023-04-01T04:03:00.748Z,3.15
2023-04-01T04:05:27.535Z,3.60
2023-04-01T04:07:54.426Z,2.63
2023-04-01T04:10:21.411Z,2.75
2023-04-01T04:12:47.751Z,2.85
2023-04-01T04:15:14.220Z,3.88
2023-04-01T04:17:40.696Z,3.60
2023-04-01T04:20:07.646Z,3.22
2023-04-01T04:22:33.986Z,3.22
2023-04-01T04:25:00.346Z,2.78
2023-04-01T04:27:26.727Z,3.08
2023-04-01T04:29:53.061Z,2.20
2023-04-01T04:32:19.435Z,2.75
2023-04-01T04:34:45.740Z,2.55
2023-04-01T04:37:12.269Z,2.30
2023-04-01T04:39:38.606Z,2.65
2023-04-01T04:42:05.085Z,2.50
2023-04-01T04:44:31.496Z,2.85
2023-04-01T04:46:58.578Z,2.50
2023-04-01T04:49:25.422Z,3.40
2023-04-01T04:51:53.290Z,3.30
2023-04-01T04:54:19.625Z,2.87
2023-04-01T04:56:45.986Z,3.35
2023-04-01T04:59:13.516Z,2.95
2023-04-01T05:01:40.012Z,2.75
2023-04-01T05:04:06.671Z,2.58
2023-04-01T05:06:33.037Z,2.27
2023-04-01T05:08:59.361Z,2.40
2023-04-01T05:11:26.974Z,2.20
2023-04-01T05:13:53.344Z,2.20
2023-04-01T05:16:20.974Z,2.28
2023-04-01T05:18:48.589Z,2.40
2023-04-01T05:21:15.966Z,2.17
2023-04-01T05:23:43.134Z,2.90
2023-04-01T05:26:12.422Z,3.28
2023-04-01T05:28:39.322Z,2.70
2023-04-01T05:31:07.303Z,3.40
2023-04-01T05:33:34.061Z,2.65
2023-04-01T05:36:08.093Z,3.00
2023-04-01T05:38:34.494Z,3.45
2023-04-01T05:41:02.801Z,3.00
2023-04-01T05:43:30.650Z,2.40
2023-04-01T05:45:57.696Z,2.13
2023-04-01T05:48:24.018Z,2.75
2023-04-01T05:50:50.427Z,2.60
2023-04-01T05:53:16.761Z,2.03
2023-04-01T05:55:43.147Z,1.90
2023-04-01T05:58:09.511Z,1.67
2023-04-01T06:00:35.858Z,1.63
2023-04-01T06:03:02.239Z,1.73
2023-04-01T06:05:31.573Z,1.65
2023-04-01T06:08:10.413Z,2.00
2023-04-01T06:11:01.769Z,1.30
2023-04-01T06:14:01.219Z,1.73
2023-04-01T06:16:30.546Z,1.40
2023-04-01T06:18:56.881Z,1.98
2023-04-01T06:21:54.107Z,1.60
2023-04-01T06:25:06.659Z,1.77
2023-04-01T06:28:08.904Z,1.77
2023-04-01T06:30:44.360Z,1.77
2023-04-01T06:33:46.151Z,1.70
2023-04-01T06:36:43.861Z,1.60
2023-04-01T06:39:28.242Z,1.83
2023-04-01T06:42:24.988Z,1.70
2023-04-01T06:45:00.491Z,1.48
2023-04-01T06:47:55.361Z,1.42
2023-04-01T06:50:21.886Z,1.30
2023-04-01T06:53:03.269Z,1.27
2023-04-01T06:55:52.923Z,1.95
2023-04-01T06:58:28.315Z,0.82
2023-04-01T07:00:59.621Z,1.33
2023-04-01T07:03:40.890Z,1.00
2023-04-01T07:06:14.431Z,0.90
2023-04-01T07:08:44.121Z,1.17
2023-04-01T07:11:24.907Z,1.25
2023-04-01T07:14:00.582Z,1.27
2023-04-01T07:16:42.884Z,1.10
2023-04-01T07:19:42.962Z,1.70
2023-04-01T07:22:45.564Z,1.70
2023-04-01T07:25:35.880Z,1.75
2023-04-01T07:28:12.168Z,1.70
2023-04-01T07:31:01.357Z,1.80
2023-04-01T07:33:40.374Z,2.10
2023-04-01T07:36:14.166Z,2.08
2023-04-01T07:39:04.503Z,2.00
2023-04-01T07:41:55.669Z,1.77
2023-04-01T07:44:37.413Z,1.40
2023-04-01T07:47:19.003Z,1.85
2023-04-01T07:49:48.379Z,1.55
2023-04-01T07:52:45.231Z,2.03
2023-04-01T07:55:36.567Z,1.90
2023-04-01T07:58:27.648Z,1.70
2023-04-01T08:01:02.039Z,1.58
2023-04-01T08:03:57.111Z,2.03
2023-04-01T08:06:50.870Z,2.50
2023-04-01T08:09:30.228Z,1.58
2023-04-01T08:12:33.835Z,1.90
2023-04-01T08:15:08.297Z,2.13
2023-04-01T08:17:59.006Z,2.63
2023-04-01T08:20:32.194Z,2.50
2023-04-01T08:23:06.788Z,2.47
2023-04-01T08:25:35.128Z,2.20
2023-04-01T08:28:16.541Z,2.47
2023-04-01T08:30:58.680Z,2.35
2023-04-01T08:33:28.692Z,1.92
2023-04-01T08:36:25.733Z,2.40
2023-04-01T08:38:58.849Z,2.47
2023-04-01T08:41:43.573Z,2.10
2023-04-01T08:44:54.403Z,2.80
2023-04-01T08:47:24.512Z,2.15
2023-04-01T08:50:29.663Z,2.83
2023-04-01T08:53:19.462Z,2.70
2023-04-01T08:56:15.728Z,3.05
2023-04-01T08:59:25.369Z,2.45
2023-04-01T09:02:22.842Z,2.80
2023-04-01T09:05:26.133Z,2.45
2023-04-01T09:08:04.620Z,2.13
2023-04-01T09:10:46.513Z,2.72
2023-04-01T09:13:48.882Z,2.60
2023-04-01T09:16:27.412Z,3.00
2023-04-01T09:19:04.158Z,1.80
2023-04-01T09:22:08.462Z,2.30
2023-04-01T09:24:43.256Z,1.42
2023-04-01T09:27:33.303Z,1.90
2023-04-01T09:30:28.366Z,1.67
2023-04-01T09:33:02.797Z,1.95
2023-04-01T09:35:47.543Z,2.17
2023-04-01T09:38:13.826Z,2.22
2023-04-01T09:40:56.977Z,2.72
2023-04-01T09:43:45.871Z,3.03
2023-04-01T09:46:39.825Z,2.60
2023-04-01T09:49:22.454Z,3.00
2023-04-01T09:52:02.242Z,3.03
2023-04-01T09:55:04.430Z,3.20
2023-04-01T09:57:54.288Z,3.05
2023-04-01T10:00:51.130Z,2.95
2023-04-01T10:03:46.950Z,3.60
2023-04-01T10:06:28.960Z,3.63
2023-04-01T10:09:21.690Z,4.22
2023-04-01T10:11:59.836Z,3.75
2023-04-01T10:14:49.341Z,3.75
2023-04-01T10:17:27.570Z,4.17
2023-04-01T10:20:15.727Z,4.80
2023-04-01T10:23:03.352Z,3.78
2023-04-01T10:25:51.533Z,3.75
2023-04-01T10:28:27.034Z,4.47
2023-04-01T10:31:25.419Z,4.40
2023-04-01T10:34:31.067Z,3.28
2023-04-01T10:36:59.797Z,4.03
2023-04-01T10:39:46.653Z,3.83
2023-04-01T10:42:22.025Z,3.90
2023-04-01T10:45:16.139Z,3.50
2023-04-01T10:48:20.307Z,3.75
2023-04-01T10:50:52.624Z,3.67
2023-04-01T10:53:34.141Z,3.88
2023-04-01T10:56:19.370Z,3.40
2023-04-01T10:59:16.691Z,3.20
2023-04-01T11:02:10.852Z,2.97
2023-04-01T11:05:02.823Z,2.50
2023-04-01T11:08:04.701Z,2.53
2023-04-01T11:10:55.736Z,2.75
2023-04-01T11:13:47.598Z,2.00
2023-04-01T11:16:32.006Z,2.47
2023-04-01T11:19:07.776Z,1.50
2023-04-01T11:22:10.530Z,0.73
2023-04-01T11:25:31.267Z,1.10
2023-04-01T11:28:22.064Z,1.10
2023-04-01T11:31:01.897Z,0.95
2023-04-01T11:33:44.974Z,0.98
2023-04-01T11:36:16.221Z,1.67
2023-04-01T11:39:06.434Z,1.20
2023-04-01T11:41:46.095Z,0.90
2023-04-01T11:44:23.424Z,0.85
2023-04-01T11:47:01.192Z,0.80
2023-04-01T11:49:34.461Z,0.50
2023-04-01T11:52:08.819Z,0.88
2023-04-01T11:54:54.875Z,0.67
2023-04-01T11:57:45.003Z,0.40
2023-04-01T12:00:41.066Z,0.55
2023-04-01T12:03:29.248Z,0.70
2023-04-01T12:06:02.714Z,0.88
2023-04-01T12:08:44.028Z,0.80
2023-04-01T12:11:33.591Z,0.70
2023-04-01T12:14:16.534Z,1.00
2023-04-01T12:17:01.716Z,1.20
2023-04-01T12:19:37.009Z,1.75
2023-04-01T12:22:43.529Z,1.87
2023-04-01T12:25:29.643Z,2.33
2023-04-01T12:28:04.990Z,2.63
2023-04-01T12:30:42.116Z,2.85
2023-04-01T12:33:26.608Z,3.25
2023-04-01T12:36:20.035Z,3.63
2023-04-01T12:39:01.334Z,3.88
2023-04-01T12:41:42.103Z,4.63
2023-04-01T12:44:24.346Z,4.47
2023-04-01T12:46:59.596Z,4.70
2023-04-01T12:49:57.729Z,4.67
2023-04-01T12:52:42.806Z,5.13
2023-04-01T12:55:24.409Z,4.68
2023-04-01T12:58:18.032Z,5.30
2023-04-01T13:01:03.735Z,5.82
2023-04-01T13:04:07.955Z,5.97
2023-04-01T13:06:59.026Z,5.28
2023-04-01T13:09:41.231Z,5.22
2023-04-01T13:12:45.013Z,5.00
2023-04-01T13:15:17.960Z,4.93
2023-04-01T13:18:16.552Z,5.17
2023-04-01T13:21:02.835Z,4.13
2023-04-01T13:23:44.216Z,4.22
2023-04-01T13:26:40.533Z,3.83
2023-04-01T13:29:21.214Z,3.70
2023-04-01T13:32:12.107Z,2.90
2023-04-01T13:34:57.182Z,2.72
2023-04-01T13:37:43.448Z,3.33
2023-04-01T13:40:28.388Z,2.95
2023-04-01T13:43:05.597Z,2.70
2023-04-01T13:45:56.677Z,2.57
2023-04-01T13:48:55.437Z,2.08
2023-04-01T13:51:49.358Z,1.83
2023-04-01T13:54:59.020Z,1.55
2023-04-01T13:57:41.817Z,1.75
2023-04-01T14:00:17.133Z,2.23
2023-04-01T14:03:21.071Z,2.00
2023-04-01T14:06:24.212Z,1.98
2023-04-01T14:09:04.304Z,2.40
2023-04-01T14:11:40.395Z,2.20
2023-04-01T14:14:23.652Z,2.87
2023-04-01T14:17:11.196Z,2.83
2023-04-01T14:20:11.128Z,2.90
2023-04-01T14:23:08.374Z,2.90
2023-04-01T14:26:13.933Z,3.20
2023-04-01T14:28:49.605Z,3.00
2023-04-01T14:31:40.727Z,2.78
2023-04-01T14:34:31.975Z,2.38
2023-04-01T14:37:31.728Z,2.42
2023-04-01T14:40:20.942Z,2.50
2023-04-01T14:43:04.742Z,2.07
2023-04-01T14:45:53.185Z,2.22
2023-04-01T14:48:34.965Z,2.00
2023-04-01T14:51:17.620Z,2.10
2023-04-01T14:53:57.355Z,2.42
2023-04-01T14:57:14.707Z,2.97
2023-04-01T14:59:48.321Z,2.42
2023-04-01T15:02:36.684Z,2.40
2023-04-01T15:05:15.861Z,2.70
2023-04-01T15:08:15.762Z,2.20
2023-04-01T15:11:07.564Z,3.07
2023-04-01T15:13:59.897Z,2.83
2023-04-01T15:17:10.881Z,2.55
2023-04-01T15:20:02.273Z,2.65
2023-04-01T15:22:38.847Z,2.35
2023-04-01T15:25:30.299Z,2.30
2023-04-01T15:28:20.540Z,2.90
2023-04-01T15:31:16.331Z,2.80
2023-04-01T15:34:06.753Z,2.25
2023-04-01T15:37:01.308Z,1.73
2023-04-01T15:39:55.765Z,2.50
2023-04-01T15:42:54.478Z,2.05
2023-04-01T15:45:46.674Z,2.47
2023-04-01T15:48:12.918Z,2.10
2023-04-01T15:50:51.435Z,2.30
2023-04-01T15:53:41.490Z,2.17
2023-04-01T15:56:29.200Z,1.90
2023-04-01T15:58:55.732Z,2.08
2023-04-01T16:01:49.764Z,2.05
2023-04-01T16:04:30.269Z,2.13
2023-04-01T16:07:10.790Z,1.67
2023-04-01T16:10:01.540Z,2.08
2023-04-01T16:12:49.725Z,2.40
2023-04-01T16:15:37.691Z,2.15
2023-04-01T16:18:23.217Z,2.22
2023-04-01T16:21:15.475Z,2.20
2023-04-01T16:23:51.520Z,2.80
2023-04-01T16:26:27.876Z,2.00
2023-04-01T16:29:12.584Z,2.03
2023-04-01T16:31:50.006Z,2.60
2023-04-01T16:34:28.151Z,2.40
2023-04-01T16:37:08.746Z,2.17
2023-04-01T16:39:53.218Z,2.70
2023-04-01T16:42:45.022Z,2.60
2023-04-01T16:45:29.940Z,2.60
2023-04-01T16:48:01.822Z,2.97
2023-04-01T16:50:40.540Z,2.50
2023-04-01T16:53:25.701Z,2.92
2023-04-01T16:56:11.631Z,3.42
2023-04-01T16:58:49.850Z,2.50
2023-04-01T17:01:23.982Z,2.50
2023-04-01T17:03:58.291Z,3.08
2023-04-01T17:06:37.483Z,2.72
2023-04-01T17:09:28.013Z,3.30
2023-04-01T17:12:36.454Z,2.67
2023-04-01T17:15:29.889Z,2.13
2023-04-01T17:18:21.210Z,2.17
2023-04-01T17:21:08.479Z,3.20
2023-04-01T17:24:05.145Z,2.65
2023-04-01T17:26:47.127Z,2.33
2023-04-01T17:29:42.195Z,2.30
2023-04-01T17:32:18.075Z,2.28
2023-04-01T17:34:57.092Z,2.40
2023-04-01T17:37:42.532Z,2.67
2023-04-01T17:40:22.078Z,2.03
2023-04-01T17:43:26.990Z,2.20
2023-04-01T17:45:58.593Z,2.40
2023-04-01T17:48:31.055Z,2.15
2023-04-01T17:51:32.408Z,2.40
2023-04-01T17:54:30.670Z,2.30
2023-04-01T17:57:27.715Z,2.20
2023-04-01T18:00:12.678Z,2.55
2023-04-01T18:02:52.666Z,2.25
2023-04-01T18:05:31.208Z,2.70
2023-04-01T18:08:41.901Z,2.45
2023-04-01T18:11:27.759Z,2.50
2023-04-01T18:14:03.367Z,2.20
2023-04-01T18:16:56.400Z,2.25
2023-04-01T18:19:48.050Z,2.55
2023-04-01T18:22:45.433Z,2.60
2023-04-01T18:25:28.889Z,2.00
2023-04-01T18:28:15.957Z,2.17
2023-04-01T18:30:45.210Z,2.63
2023-04-01T18:33:23.986Z,2.83
2023-04-01T18:35:53.549Z,2.35
2023-04-01T18:38:30.401Z,2.40
2023-04-01T18:41:13.731Z,3.00
2023-04-01T18:43:57.160Z,3.40
2023-04-01T18:46:34.927Z,2.25
2023-04-01T18:49:27.326Z,3.25
2023-04-01T18:51:58.909Z,2.97
2023-04-01T18:54:33.049Z,2.95
2023-04-01T18:57:14.382Z,3.42
2023-04-01T18:59:52.468Z,2.53
2023-04-01T19:02:43.914Z,2.78
2023-04-01T19:05:24.306Z,2.67
2023-04-01T19:07:52.995Z,2.90
2023-04-01T19:10:34.839Z,2.75
2023-04-01T19:13:13.628Z,2.55
2023-04-01T19:16:19.705Z,2.95
2023-04-01T19:19:22.028Z,2.90
2023-04-01T19:21:58.477Z,2.47
2023-04-01T19:24:27.630Z,2.60
2023-04-01T19:27:11.047Z,2.30
2023-04-01T19:29:49.980Z,2.50
2023-04-01T19:32:55.508Z,2.63
2023-04-01T19:35:46.729Z,2.60
2023-04-01T19:38:18.978Z,2.90
2023-04-01T19:41:00.894Z,2.53
2023-04-01T19:43:54.760Z,2.67
2023-04-01T19:46:29.847Z,2.70
2023-04-01T19:49:21.108Z,2.92
2023-04-01T19:52:25.300Z,3.03
2023-04-01T19:55:22.492Z,2.53
2023-04-01T19:58:16.196Z,2.22
2023-04-01T20:00:48.435Z,2.43
2023-04-01T20:03:27.873Z,3.03
2023-04-01T20:06:19.165Z,3.08
2023-04-01T20:08:54.628Z,3.95
2023-04-01T20:11:29.318Z,3.80
2023-04-01T20:14:19.158Z,4.53
2023-04-01T20:16:51.540Z,4.20
2023-04-01T20:19:37.032Z,5.18
2023-04-01T20:22:09.333Z,4.30
2023-04-01T20:24:44.428Z,4.07
2023-04-01T20:27:13.665Z,4.67
2023-04-01T20:29:56.138Z,4.57
2023-04-01T20:32:37.836Z,4.32
2023-04-01T20:35:42.087Z,4.85
2023-04-01T20:38:20.500Z,5.47
2023-04-01T20:41:08.618Z,5.13
2023-04-01T20:44:10.212Z,4.45
2023-04-01T20:46:49.070Z,4.90
2023-04-01T20:49:49.412Z,4.85
2023-04-01T20:52:15.933Z,4.53
2023-04-01T20:54:54.484Z,4.70
2023-04-01T20:57:43.144Z,4.55
2023-04-01T21:00:53.949Z,4.22
2023-04-01T21:03:39.363Z,4.55
2023-04-01T21:06:18.007Z,4.72
2023-04-01T21:09:04.065Z,4.20
2023-04-01T21:11:47.941Z,4.38
2023-04-01T21:14:33.156Z,4.03
2023-04-01T21:17:18.184Z,3.83
2023-04-01T21:20:00.263Z,4.88
2023-04-01T21:22:48.363Z,4.43
2023-04-01T21:25:17.636Z,3.78
2023-04-01T21:28:14.156Z,4.55
2023-04-01T21:30:50.152Z,3.67
2023-04-01T21:33:25.710Z,4.10
2023-04-01T21:36:02.347Z,3.97
2023-04-01T21:39:22.422Z,3.60
2023-04-01T21:42:16.285Z,3.40
2023-04-01T21:44:56.254Z,4.00
2023-04-01T21:47:41.133Z,4.35
2023-04-01T21:50:37.328Z,4.10
2023-04-01T21:53:32.396Z,4.10
2023-04-01T21:56:35.325Z,3.97
2023-04-01T21:59:29.526Z,4.30
2023-04-01T22:01:58.982Z,3.83
2023-04-01T22:05:05.536Z,4.20
2023-04-01T22:07:45.326Z,4.07
2023-04-01T22:10:23.539Z,3.97
2023-04-01T22:13:08.923Z,3.75
2023-04-01T22:15:56.451Z,4.55
2023-04-01T22:18:34.927Z,4.30
2023-04-01T22:21:34.618Z,4.28
2023-04-01T22:24:33.310Z,4.40
2023-04-01T22:27:22.809Z,3.88
2023-04-01T22:30:07.845Z,4.03
2023-04-01T22:32:48.056Z,4.00
2023-04-01T22:35:47.111Z,4.68
2023-04-01T22:38:28.358Z,4.53
2023-04-01T22:41:06.555Z,4.22
2023-04-01T22:43:39.700Z,3.70
2023-04-01T22:46:34.650Z,4.50
2023-04-01T22:49:23.352Z,4.35
2023-04-01T22:52:04.498Z,4.40
2023-04-01T22:54:42.632Z,4.13
2023-04-01T22:57:15.146Z,4.63
2023-04-01T23:00:00.135Z,5.10
2023-04-01T23:03:07.053Z,5.80
2023-04-01T23:05:38.323Z,4.47
2023-04-01T23:08:23.199Z,5.78
2023-04-01T23:10:59.093Z,5.40
2023-04-01T23:13:32.769Z,5.13
2023-04-01T23:15:59.747Z,4.72
2023-04-01T23:18:51.499Z,5.45
2023-04-01T23:21:49.338Z,5.10
2023-04-01T23:24:31.670Z,5.40
2023-04-01T23:27:11.630Z,5.63
2023-04-01T23:29:40.852Z,5.63
2023-04-01T23:32:20.270Z,5.43
2023-04-01T23:34:50.673Z,6.22
2023-04-01T23:37:19.514Z,5.20
2023-04-01T23:39:52.836Z,5.50
2023-04-01T23:42:24.425Z,5.63
2023-04-01T23:44:54.711Z,4.90
2023-04-01T23:47:25.389Z,6.18
2023-04-01T23:49:56.635Z,5.82
2023-04-01T23:52:28.513Z,6.93
2023-04-01T23:55:09.761Z,6.05
2023-04-01T23:57:37.854Z,6.30
